sensor_id;sensor_type;location;lat;lon;timestamp;pressure;altitude;pressure_sealevel;temperature
68127;BMP180;54931;52.098;21.006;2022-07-04T00:00:19;100470.20;;;17.40
68127;BMP180;54931;52.098;21.006;2022-07-04T00:03:02;100470.20;;;17.40
68127;BMP180;54931;52.098;21.006;2022-07-04T00:05:29;100468.00;;;17.40
68127;BMP180;54931;52.098;21.006;2022-07-04T00:07:56;100470.40;;;17.40
68127;BMP180;54931;52.098;21.006;2022-07-04T00:10:24;100468.60;;;17.40
68127;BMP180;54931;52.098;21.006;2022-07-04T00:12:52;100472.60;;;17.40
68127;BMP180;54931;52.098;21.006;2022-07-04T00:15:19;100472.20;;;17.42
68127;BMP180;54931;52.098;21.006;2022-07-04T00:17:46;100468.00;;;17.50
68127;BMP180;54931;52.098;21.006;2022-07-04T00:20:14;100468.00;;;17.50
68127;BMP180;54931;52.098;21.006;2022-07-04T00:22:42;100468.00;;;17.48
68127;BMP180;54931;52.098;21.006;2022-07-04T00:25:09;100467.60;;;17.40
68127;BMP180;54931;52.098;21.006;2022-07-04T00:27:37;100467.00;;;17.36
68127;BMP180;54931;52.098;21.006;2022-07-04T00:30:05;100460.80;;;17.40
68127;BMP180;54931;52.098;21.006;2022-07-04T00:32:32;100459.40;;;17.40
68127;BMP180;54931;52.098;21.006;2022-07-04T00:35:00;100458.00;;;17.40
68127;BMP180;54931;52.098;21.006;2022-07-04T00:37:27;100452.60;;;17.40
68127;BMP180;54931;52.098;21.006;2022-07-04T00:39:54;100448.00;;;17.40
68127;BMP180;54931;52.098;21.006;2022-07-04T00:42:22;100448.60;;;17.30
68127;BMP180;54931;52.098;21.006;2022-07-04T00:44:49;100446.40;;;17.30
68127;BMP180;54931;52.098;21.006;2022-07-04T00:47:16;100448.20;;;17.30
68127;BMP180;54931;52.098;21.006;2022-07-04T00:49:44;100441.60;;;17.30
68127;BMP180;54931;52.098;21.006;2022-07-04T00:52:13;100434.60;;;17.30
68127;BMP180;54931;52.098;21.006;2022-07-04T00:54:41;100440.40;;;17.20
68127;BMP180;54931;52.098;21.006;2022-07-04T00:57:09;100434.60;;;17.10
68127;BMP180;54931;52.098;21.006;2022-07-04T00:59:36;100430.00;;;17.10
68127;BMP180;54931;52.098;21.006;2022-07-04T01:02:04;100430.40;;;17.10
68127;BMP180;54931;52.098;21.006;2022-07-04T01:04:31;100421.80;;;17.10
68127;BMP180;54931;52.098;21.006;2022-07-04T01:06:58;100418.80;;;17.00
68127;BMP180;54931;52.098;21.006;2022-07-04T01:09:26;100415.40;;;17.00
68127;BMP180;54931;52.098;21.006;2022-07-04T01:11:53;100416.40;;;16.90
68127;BMP180;54931;52.098;21.006;2022-07-04T01:14:20;100416.80;;;16.80
68127;BMP180;54931;52.098;21.006;2022-07-04T01:16:48;100422.40;;;16.80
68127;BMP180;54931;52.098;21.006;2022-07-04T01:19:15;100421.60;;;16.80
68127;BMP180;54931;52.098;21.006;2022-07-04T01:21:42;100421.60;;;16.70
68127;BMP180;54931;52.098;21.006;2022-07-04T01:24:12;100420.60;;;16.70
68127;BMP180;54931;52.098;21.006;2022-07-04T01:26:40;100421.00;;;16.70
68127;BMP180;54931;52.098;21.006;2022-07-04T01:29:07;100423.60;;;16.70
68127;BMP180;54931;52.098;21.006;2022-07-04T01:31:35;100424.60;;;16.70
68127;BMP180;54931;52.098;21.006;2022-07-04T01:34:02;100426.60;;;16.70
68127;BMP180;54931;52.098;21.006;2022-07-04T01:36:30;100424.00;;;16.64
68127;BMP180;54931;52.098;21.006;2022-07-04T01:38:57;100426.20;;;16.60
68127;BMP180;54931;52.098;21.006;2022-07-04T01:41:26;100426.40;;;16.60
68127;BMP180;54931;52.098;21.006;2022-07-04T01:43:53;100431.40;;;16.60
68127;BMP180;54931;52.098;21.006;2022-07-04T01:46:20;100429.40;;;16.64
68127;BMP180;54931;52.098;21.006;2022-07-04T01:48:48;100432.60;;;16.70
68127;BMP180;54931;52.098;21.006;2022-07-04T01:51:15;100431.60;;;16.70
68127;BMP180;54931;52.098;21.006;2022-07-04T01:53:42;100431.80;;;16.66
68127;BMP180;54931;52.098;21.006;2022-07-04T01:56:10;100435.60;;;16.60
68127;BMP180;54931;52.098;21.006;2022-07-04T01:58:37;100436.60;;;16.60
68127;BMP180;54931;52.098;21.006;2022-07-04T02:01:04;100432.60;;;16.60
68127;BMP180;54931;52.098;21.006;2022-07-04T02:07:20;100426.20;;;16.60
68127;BMP180;54931;52.098;21.006;2022-07-04T02:09:47;100427.40;;;16.60
68127;BMP180;54931;52.098;21.006;2022-07-04T02:12:15;100427.00;;;16.60
68127;BMP180;54931;52.098;21.006;2022-07-04T02:15:02;100427.40;;;16.60
68127;BMP180;54931;52.098;21.006;2022-07-04T02:17:30;100424.00;;;16.64
68127;BMP180;54931;52.098;21.006;2022-07-04T02:19:57;100429.00;;;16.70
68127;BMP180;54931;52.098;21.006;2022-07-04T02:22:24;100427.20;;;16.70
68127;BMP180;54931;52.098;21.006;2022-07-04T02:24:52;100428.40;;;16.70
68127;BMP180;54931;52.098;21.006;2022-07-04T02:27:19;100429.80;;;16.60
68127;BMP180;54931;52.098;21.006;2022-07-04T02:29:46;100430.00;;;16.62
68127;BMP180;54931;52.098;21.006;2022-07-04T02:32:13;100430.00;;;16.60
68127;BMP180;54931;52.098;21.006;2022-07-04T02:34:41;100428.20;;;16.56
68127;BMP180;54931;52.098;21.006;2022-07-04T02:37:08;100424.80;;;16.60
68127;BMP180;54931;52.098;21.006;2022-07-04T02:39:36;100423.20;;;16.62
68127;BMP180;54931;52.098;21.006;2022-07-04T02:42:04;100416.60;;;16.64
68127;BMP180;54931;52.098;21.006;2022-07-04T02:44:31;100417.00;;;16.60
68127;BMP180;54931;52.098;21.006;2022-07-04T02:46:58;100411.00;;;16.50
68127;BMP180;54931;52.098;21.006;2022-07-04T02:49:27;100411.80;;;16.40
68127;BMP180;54931;52.098;21.006;2022-07-04T02:51:55;100407.60;;;16.40
68127;BMP180;54931;52.098;21.006;2022-07-04T02:54:23;100408.20;;;16.50
68127;BMP180;54931;52.098;21.006;2022-07-04T02:56:50;100413.60;;;16.50
68127;BMP180;54931;52.098;21.006;2022-07-04T02:59:17;100414.60;;;16.50
68127;BMP180;54931;52.098;21.006;2022-07-04T03:01:44;100417.60;;;16.50
68127;BMP180;54931;52.098;21.006;2022-07-04T03:04:12;100417.20;;;16.40
68127;BMP180;54931;52.098;21.006;2022-07-04T03:06:39;100419.60;;;16.42
68127;BMP180;54931;52.098;21.006;2022-07-04T03:09:06;100415.20;;;16.50
68127;BMP180;54931;52.098;21.006;2022-07-04T03:11:34;100415.00;;;16.50
68127;BMP180;54931;52.098;21.006;2022-07-04T03:14:01;100421.20;;;16.60
68127;BMP180;54931;52.098;21.006;2022-07-04T03:16:29;100427.80;;;16.60
68127;BMP180;54931;52.098;21.006;2022-07-04T03:18:56;100424.80;;;16.60
68127;BMP180;54931;52.098;21.006;2022-07-04T03:21:24;100428.60;;;16.70
68127;BMP180;54931;52.098;21.006;2022-07-04T03:23:51;100431.60;;;16.64
68127;BMP180;54931;52.098;21.006;2022-07-04T03:26:30;100438.20;;;16.70
68127;BMP180;54931;52.098;21.006;2022-07-04T03:28:59;100437.20;;;16.90
68127;BMP180;54931;52.098;21.006;2022-07-04T03:31:28;100438.20;;;17.10
68127;BMP180;54931;52.098;21.006;2022-07-04T03:33:56;100437.40;;;17.30
68127;BMP180;54931;52.098;21.006;2022-07-04T03:36:23;100436.60;;;17.50
68127;BMP180;54931;52.098;21.006;2022-07-04T03:38:50;100433.60;;;17.70
68127;BMP180;54931;52.098;21.006;2022-07-04T03:41:18;100439.40;;;17.82
68127;BMP180;54931;52.098;21.006;2022-07-04T03:43:45;100440.20;;;18.00
68127;BMP180;54931;52.098;21.006;2022-07-04T03:46:12;100440.40;;;18.10
68127;BMP180;54931;52.098;21.006;2022-07-04T03:48:39;100441.20;;;18.30
68127;BMP180;54931;52.098;21.006;2022-07-04T03:51:11;100440.20;;;18.50
68127;BMP180;54931;52.098;21.006;2022-07-04T03:53:39;100437.80;;;18.74
68127;BMP180;54931;52.098;21.006;2022-07-04T03:56:07;100437.60;;;19.00
68127;BMP180;54931;52.098;21.006;2022-07-04T03:58:35;100435.00;;;19.24
68127;BMP180;54931;52.098;21.006;2022-07-04T04:01:03;100435.20;;;19.50
68127;BMP180;54931;52.098;21.006;2022-07-04T04:03:30;100432.00;;;19.70
68127;BMP180;54931;52.098;21.006;2022-07-04T04:06:16;100433.00;;;19.90
68127;BMP180;54931;52.098;21.006;2022-07-04T04:08:44;100429.80;;;20.10
68127;BMP180;54931;52.098;21.006;2022-07-04T04:11:11;100434.20;;;20.34
68127;BMP180;54931;52.098;21.006;2022-07-04T04:13:38;100428.00;;;20.50
68127;BMP180;54931;52.098;21.006;2022-07-04T04:16:06;100430.40;;;20.68
68127;BMP180;54931;52.098;21.006;2022-07-04T04:18:33;100431.40;;;20.80
68127;BMP180;54931;52.098;21.006;2022-07-04T04:21:00;100423.60;;;20.94
68127;BMP180;54931;52.098;21.006;2022-07-04T04:23:27;100421.00;;;21.02
68127;BMP180;54931;52.098;21.006;2022-07-04T04:25:55;100423.40;;;21.10
68127;BMP180;54931;52.098;21.006;2022-07-04T04:28:23;100423.80;;;21.20
68127;BMP180;54931;52.098;21.006;2022-07-04T04:30:51;100420.60;;;21.40
68127;BMP180;54931;52.098;21.006;2022-07-04T04:33:18;100412.60;;;21.60
68127;BMP180;54931;52.098;21.006;2022-07-04T04:35:45;100411.00;;;21.70
68127;BMP180;54931;52.098;21.006;2022-07-04T04:38:12;100411.20;;;21.96
68127;BMP180;54931;52.098;21.006;2022-07-04T04:40:40;100412.20;;;22.10
68127;BMP180;54931;52.098;21.006;2022-07-04T04:43:07;100415.00;;;22.30
68127;BMP180;54931;52.098;21.006;2022-07-04T04:45:35;100420.00;;;22.56
68127;BMP180;54931;52.098;21.006;2022-07-04T04:48:02;100413.60;;;22.70
68127;BMP180;54931;52.098;21.006;2022-07-04T04:50:29;100416.80;;;22.90
68127;BMP180;54931;52.098;21.006;2022-07-04T04:52:59;100414.00;;;23.00
68127;BMP180;54931;52.098;21.006;2022-07-04T04:55:27;100418.80;;;23.10
68127;BMP180;54931;52.098;21.006;2022-07-04T04:57:54;100414.80;;;23.26
68127;BMP180;54931;52.098;21.006;2022-07-04T05:00:22;100408.60;;;23.40
68127;BMP180;54931;52.098;21.006;2022-07-04T05:02:49;100410.40;;;23.50
68127;BMP180;54931;52.098;21.006;2022-07-04T05:05:17;100414.00;;;23.68
68127;BMP180;54931;52.098;21.006;2022-07-04T05:07:44;100416.60;;;23.70
68127;BMP180;54931;52.098;21.006;2022-07-04T05:10:12;100414.80;;;23.80
68127;BMP180;54931;52.098;21.006;2022-07-04T05:12:40;100414.40;;;23.90
68127;BMP180;54931;52.098;21.006;2022-07-04T05:15:09;100421.80;;;24.00
68127;BMP180;54931;52.098;21.006;2022-07-04T05:17:41;100423.60;;;24.10
68127;BMP180;54931;52.098;21.006;2022-07-04T05:20:10;100422.40;;;24.30
68127;BMP180;54931;52.098;21.006;2022-07-04T05:22:37;100422.80;;;24.40
68127;BMP180;54931;52.098;21.006;2022-07-04T05:25:05;100426.00;;;24.60
68127;BMP180;54931;52.098;21.006;2022-07-04T05:27:33;100422.40;;;24.94
68127;BMP180;54931;52.098;21.006;2022-07-04T05:30:01;100423.60;;;25.20
68127;BMP180;54931;52.098;21.006;2022-07-04T05:32:29;100423.60;;;25.40
68127;BMP180;54931;52.098;21.006;2022-07-04T05:34:56;100432.40;;;25.60
68127;BMP180;54931;52.098;21.006;2022-07-04T05:37:25;100431.20;;;25.80
68127;BMP180;54931;52.098;21.006;2022-07-04T05:39:53;100430.60;;;25.92
68127;BMP180;54931;52.098;21.006;2022-07-04T05:42:20;100440.60;;;26.18
68127;BMP180;54931;52.098;21.006;2022-07-04T05:44:47;100443.60;;;26.40
68127;BMP180;54931;52.098;21.006;2022-07-04T05:47:14;100444.80;;;26.50
68127;BMP180;54931;52.098;21.006;2022-07-04T05:49:42;100443.40;;;26.50
68127;BMP180;54931;52.098;21.006;2022-07-04T05:52:09;100439.20;;;26.60
68127;BMP180;54931;52.098;21.006;2022-07-04T05:54:36;100440.60;;;26.60
68127;BMP180;54931;52.098;21.006;2022-07-04T05:57:04;100443.40;;;26.80
68127;BMP180;54931;52.098;21.006;2022-07-04T05:59:31;100445.60;;;26.90
68127;BMP180;54931;52.098;21.006;2022-07-04T06:01:59;100447.20;;;27.00
68127;BMP180;54931;52.098;21.006;2022-07-04T06:04:27;100450.00;;;27.20
68127;BMP180;54931;52.098;21.006;2022-07-04T06:06:54;100445.00;;;27.26
68127;BMP180;54931;52.098;21.006;2022-07-04T06:09:21;100446.60;;;27.30
68127;BMP180;54931;52.098;21.006;2022-07-04T06:11:49;100445.60;;;27.30
68127;BMP180;54931;52.098;21.006;2022-07-04T06:14:16;100446.60;;;27.40
68127;BMP180;54931;52.098;21.006;2022-07-04T06:16:43;100445.80;;;27.48
68127;BMP180;54931;52.098;21.006;2022-07-04T06:19:11;100446.00;;;27.50
68127;BMP180;54931;52.098;21.006;2022-07-04T06:21:38;100439.40;;;27.70
68127;BMP180;54931;52.098;21.006;2022-07-04T06:24:05;100433.20;;;27.80
68127;BMP180;54931;52.098;21.006;2022-07-04T06:26:33;100429.60;;;27.90
68127;BMP180;54931;52.098;21.006;2022-07-04T06:29:00;100433.20;;;27.80
68127;BMP180;54931;52.098;21.006;2022-07-04T06:31:27;100420.80;;;27.72
68127;BMP180;54931;52.098;21.006;2022-07-04T06:33:55;100420.60;;;27.80
68127;BMP180;54931;52.098;21.006;2022-07-04T06:36:41;100422.40;;;27.64
68127;BMP180;54931;52.098;21.006;2022-07-04T06:39:08;100415.20;;;27.30
68127;BMP180;54931;52.098;21.006;2022-07-04T06:41:35;100410.40;;;27.40
68127;BMP180;54931;52.098;21.006;2022-07-04T06:44:04;100410.00;;;27.50
68127;BMP180;54931;52.098;21.006;2022-07-04T06:46:31;100409.60;;;27.50
68127;BMP180;54931;52.098;21.006;2022-07-04T06:48:59;100407.80;;;27.40
68127;BMP180;54931;52.098;21.006;2022-07-04T06:51:26;100403.60;;;27.22
68127;BMP180;54931;52.098;21.006;2022-07-04T06:53:53;100400.80;;;27.24
68127;BMP180;54931;52.098;21.006;2022-07-04T06:56:21;100407.20;;;27.50
68127;BMP180;54931;52.098;21.006;2022-07-04T06:58:48;100404.20;;;27.70
68127;BMP180;54931;52.098;21.006;2022-07-04T07:01:15;100404.60;;;28.02
68127;BMP180;54931;52.098;21.006;2022-07-04T07:03:43;100406.40;;;28.20
68127;BMP180;54931;52.098;21.006;2022-07-04T07:06:10;100408.00;;;28.36
68127;BMP180;54931;52.098;21.006;2022-07-04T07:08:38;100408.80;;;28.50
68127;BMP180;54931;52.098;21.006;2022-07-04T07:11:05;100411.20;;;28.52
68127;BMP180;54931;52.098;21.006;2022-07-04T07:13:46;100404.00;;;28.70
68127;BMP180;54931;52.098;21.006;2022-07-04T07:16:14;100410.20;;;28.70
68127;BMP180;54931;52.098;21.006;2022-07-04T07:18:42;100406.80;;;28.78
68127;BMP180;54931;52.098;21.006;2022-07-04T07:21:10;100409.80;;;28.80
68127;BMP180;54931;52.098;21.006;2022-07-04T07:23:40;100412.40;;;28.88
68127;BMP180;54931;52.098;21.006;2022-07-04T07:26:10;100413.40;;;29.20
68127;BMP180;54931;52.098;21.006;2022-07-04T07:28:38;100415.20;;;29.46
68127;BMP180;54931;52.098;21.006;2022-07-04T07:31:05;100417.20;;;29.40
68127;BMP180;54931;52.098;21.006;2022-07-04T07:33:33;100415.00;;;29.40
68127;BMP180;54931;52.098;21.006;2022-07-04T07:36:00;100416.60;;;29.40
68127;BMP180;54931;52.098;21.006;2022-07-04T07:38:28;100409.40;;;29.24
68127;BMP180;54931;52.098;21.006;2022-07-04T07:40:56;100413.20;;;29.30
68127;BMP180;54931;52.098;21.006;2022-07-04T07:43:23;100411.40;;;29.28
68127;BMP180;54931;52.098;21.006;2022-07-04T07:45:51;100411.20;;;29.30
68127;BMP180;54931;52.098;21.006;2022-07-04T07:48:18;100414.00;;;29.44
68127;BMP180;54931;52.098;21.006;2022-07-04T07:50:45;100414.40;;;29.50
68127;BMP180;54931;52.098;21.006;2022-07-04T07:53:13;100413.40;;;29.72
68127;BMP180;54931;52.098;21.006;2022-07-04T07:55:40;100414.80;;;29.80
68127;BMP180;54931;52.098;21.006;2022-07-04T07:58:07;100421.60;;;29.62
68127;BMP180;54931;52.098;21.006;2022-07-04T08:00:35;100415.00;;;29.54
68127;BMP180;54931;52.098;21.006;2022-07-04T08:03:02;100422.00;;;29.30
68127;BMP180;54931;52.098;21.006;2022-07-04T08:05:48;100422.00;;;28.52
68127;BMP180;54931;52.098;21.006;2022-07-04T08:08:16;100425.00;;;27.84
68127;BMP180;54931;52.098;21.006;2022-07-04T08:10:44;100424.40;;;27.36
68127;BMP180;54931;52.098;21.006;2022-07-04T08:13:11;100422.60;;;26.92
68127;BMP180;54931;52.098;21.006;2022-07-04T08:15:38;100418.40;;;26.60
68127;BMP180;54931;52.098;21.006;2022-07-04T08:18:06;100417.80;;;26.90
68127;BMP180;54931;52.098;21.006;2022-07-04T08:20:33;100416.40;;;27.34
68127;BMP180;54931;52.098;21.006;2022-07-04T08:23:00;100420.20;;;27.86
68127;BMP180;54931;52.098;21.006;2022-07-04T08:25:28;100419.60;;;28.44
68127;BMP180;54931;52.098;21.006;2022-07-04T08:27:55;100421.80;;;29.04
68127;BMP180;54931;52.098;21.006;2022-07-04T08:30:23;100415.60;;;29.42
68127;BMP180;54931;52.098;21.006;2022-07-04T08:32:51;100410.00;;;29.72
68127;BMP180;54931;52.098;21.006;2022-07-04T08:35:18;100409.20;;;29.60
68127;BMP180;54931;52.098;21.006;2022-07-04T08:37:45;100408.00;;;29.20
68127;BMP180;54931;52.098;21.006;2022-07-04T08:40:12;100405.80;;;29.10
68127;BMP180;54931;52.098;21.006;2022-07-04T08:42:40;100406.60;;;29.00
68127;BMP180;54931;52.098;21.006;2022-07-04T08:45:08;100409.40;;;28.78
68127;BMP180;54931;52.098;21.006;2022-07-04T08:47:36;100410.00;;;28.32
68127;BMP180;54931;52.098;21.006;2022-07-04T08:50:12;100408.20;;;27.80
68127;BMP180;54931;52.098;21.006;2022-07-04T08:52:43;100411.20;;;27.22
68127;BMP180;54931;52.098;21.006;2022-07-04T08:55:13;100414.40;;;26.90
68127;BMP180;54931;52.098;21.006;2022-07-04T08:57:59;100405.00;;;26.98
68127;BMP180;54931;52.098;21.006;2022-07-04T09:00:46;100411.80;;;27.40
68127;BMP180;54931;52.098;21.006;2022-07-04T09:03:13;100407.80;;;27.50
68127;BMP180;54931;52.098;21.006;2022-07-04T09:05:40;100406.80;;;27.62
68127;BMP180;54931;52.098;21.006;2022-07-04T09:08:08;100410.40;;;27.80
68127;BMP180;54931;52.098;21.006;2022-07-04T09:10:36;100410.00;;;27.80
68127;BMP180;54931;52.098;21.006;2022-07-04T09:13:06;100404.80;;;27.70
68127;BMP180;54931;52.098;21.006;2022-07-04T09:15:35;100405.40;;;27.58
68127;BMP180;54931;52.098;21.006;2022-07-04T09:18:04;100414.20;;;27.42
68127;BMP180;54931;52.098;21.006;2022-07-04T09:20:33;100411.40;;;27.16
68127;BMP180;54931;52.098;21.006;2022-07-04T09:23:00;100403.40;;;27.18
68127;BMP180;54931;52.098;21.006;2022-07-04T09:25:32;100406.80;;;27.64
68127;BMP180;54931;52.098;21.006;2022-07-04T09:28:01;100419.80;;;27.90
68127;BMP180;54931;52.098;21.006;2022-07-04T09:30:28;100418.20;;;27.90
68127;BMP180;54931;52.098;21.006;2022-07-04T09:32:57;100418.60;;;28.00
68127;BMP180;54931;52.098;21.006;2022-07-04T09:35:30;100424.80;;;28.10
68127;BMP180;54931;52.098;21.006;2022-07-04T09:38:04;100423.40;;;28.28
68127;BMP180;54931;52.098;21.006;2022-07-04T09:40:34;100417.20;;;28.50
68127;BMP180;54931;52.098;21.006;2022-07-04T09:43:25;100415.00;;;28.80
68127;BMP180;54931;52.098;21.006;2022-07-04T09:46:02;100418.80;;;29.08
68127;BMP180;54931;52.098;21.006;2022-07-04T09:48:56;100424.80;;;29.04
68127;BMP180;54931;52.098;21.006;2022-07-04T09:51:51;100425.00;;;29.30
68127;BMP180;54931;52.098;21.006;2022-07-04T09:54:27;100421.60;;;29.48
68127;BMP180;54931;52.098;21.006;2022-07-04T09:57:02;100421.80;;;29.10
68127;BMP180;54931;52.098;21.006;2022-07-04T09:59:30;100424.60;;;29.00
68127;BMP180;54931;52.098;21.006;2022-07-04T10:02:10;100427.40;;;29.16
68127;BMP180;54931;52.098;21.006;2022-07-04T10:04:51;100429.60;;;29.38
68127;BMP180;54931;52.098;21.006;2022-07-04T10:07:38;100417.80;;;29.30
68127;BMP180;54931;52.098;21.006;2022-07-04T10:13:01;100416.20;;;29.56
68127;BMP180;54931;52.098;21.006;2022-07-04T10:15:29;100414.40;;;29.84
68127;BMP180;54931;52.098;21.006;2022-07-04T10:17:57;100417.60;;;30.00
68127;BMP180;54931;52.098;21.006;2022-07-04T10:20:25;100413.20;;;29.90
68127;BMP180;54931;52.098;21.006;2022-07-04T10:22:53;100411.40;;;29.80
68127;BMP180;54931;52.098;21.006;2022-07-04T10:25:21;100413.00;;;29.80
68127;BMP180;54931;52.098;21.006;2022-07-04T10:27:49;100414.60;;;29.60
68127;BMP180;54931;52.098;21.006;2022-07-04T10:30:26;100412.40;;;29.50
68127;BMP180;54931;52.098;21.006;2022-07-04T10:32:58;100414.80;;;29.54
68127;BMP180;54931;52.098;21.006;2022-07-04T10:38:30;100410.40;;;29.64
68127;BMP180;54931;52.098;21.006;2022-07-04T10:41:02;100409.20;;;29.90
68127;BMP180;54931;52.098;21.006;2022-07-04T10:48:53;100410.20;;;30.40
68127;BMP180;54931;52.098;21.006;2022-07-04T10:51:42;100413.00;;;30.56
68127;BMP180;54931;52.098;21.006;2022-07-04T10:54:14;100397.80;;;30.12
68127;BMP180;54931;52.098;21.006;2022-07-04T10:56:46;100401.00;;;29.66
68127;BMP180;54931;52.098;21.006;2022-07-04T10:59:24;100404.60;;;29.50
68127;BMP180;54931;52.098;21.006;2022-07-04T11:04:58;100398.60;;;29.88
68127;BMP180;54931;52.098;21.006;2022-07-04T11:10:18;100385.60;;;29.82
68127;BMP180;54931;52.098;21.006;2022-07-04T11:18:17;100384.60;;;29.70
68127;BMP180;54931;52.098;21.006;2022-07-04T11:20:46;100387.20;;;29.70
68127;BMP180;54931;52.098;21.006;2022-07-04T11:23:17;100384.40;;;29.70
68127;BMP180;54931;52.098;21.006;2022-07-04T11:25:49;100385.20;;;29.72
68127;BMP180;54931;52.098;21.006;2022-07-04T11:28:23;100383.20;;;29.70
68127;BMP180;54931;52.098;21.006;2022-07-04T11:30:58;100385.60;;;29.72
68127;BMP180;54931;52.098;21.006;2022-07-04T11:33:29;100374.80;;;29.88
68127;BMP180;54931;52.098;21.006;2022-07-04T11:36:18;100378.40;;;30.10
68127;BMP180;54931;52.098;21.006;2022-07-04T11:39:06;100375.60;;;29.90
68127;BMP180;54931;52.098;21.006;2022-07-04T11:41:41;100376.20;;;29.86
68127;BMP180;54931;52.098;21.006;2022-07-04T11:44:39;100376.00;;;29.78
68127;BMP180;54931;52.098;21.006;2022-07-04T11:47:39;100369.40;;;29.30
68127;BMP180;54931;52.098;21.006;2022-07-04T11:50:16;100367.20;;;28.94
68127;BMP180;54931;52.098;21.006;2022-07-04T11:52:49;100365.80;;;28.80
68127;BMP180;54931;52.098;21.006;2022-07-04T11:55:20;100363.60;;;28.80
68127;BMP180;54931;52.098;21.006;2022-07-04T11:57:51;100363.60;;;28.72
68127;BMP180;54931;52.098;21.006;2022-07-04T12:00:26;100354.80;;;28.70
68127;BMP180;54931;52.098;21.006;2022-07-04T12:02:59;100353.80;;;28.70
68127;BMP180;54931;52.098;21.006;2022-07-04T12:05:27;100357.00;;;28.84
68127;BMP180;54931;52.098;21.006;2022-07-04T12:07:55;100358.20;;;28.98
68127;BMP180;54931;52.098;21.006;2022-07-04T12:10:24;100356.20;;;29.16
68127;BMP180;54931;52.098;21.006;2022-07-04T12:12:55;100349.60;;;29.20
68127;BMP180;54931;52.098;21.006;2022-07-04T12:15:29;100348.40;;;29.32
68127;BMP180;54931;52.098;21.006;2022-07-04T12:18:03;100350.40;;;29.42
68127;BMP180;54931;52.098;21.006;2022-07-04T12:20:33;100345.60;;;29.30
68127;BMP180;54931;52.098;21.006;2022-07-04T12:23:01;100346.40;;;29.20
68127;BMP180;54931;52.098;21.006;2022-07-04T12:25:36;100347.00;;;29.20
68127;BMP180;54931;52.098;21.006;2022-07-04T12:28:12;100350.00;;;29.22
68127;BMP180;54931;52.098;21.006;2022-07-04T12:33:23;100360.40;;;29.30
68127;BMP180;54931;52.098;21.006;2022-07-04T12:36:02;100360.60;;;29.44
68127;BMP180;54931;52.098;21.006;2022-07-04T12:41:08;100354.00;;;29.26
68127;BMP180;54931;52.098;21.006;2022-07-04T12:46:15;100362.60;;;28.80
68127;BMP180;54931;52.098;21.006;2022-07-04T12:48:55;100361.80;;;28.70
68127;BMP180;54931;52.098;21.006;2022-07-04T12:51:31;100361.40;;;28.60
68127;BMP180;54931;52.098;21.006;2022-07-04T12:54:08;100360.00;;;28.58
68127;BMP180;54931;52.098;21.006;2022-07-04T12:56:41;100360.20;;;28.50
68127;BMP180;54931;52.098;21.006;2022-07-04T12:59:13;100359.00;;;28.50
68127;BMP180;54931;52.098;21.006;2022-07-04T13:01:42;100354.00;;;28.40
68127;BMP180;54931;52.098;21.006;2022-07-04T13:04:11;100352.00;;;28.42
68127;BMP180;54931;52.098;21.006;2022-07-04T13:06:40;100350.60;;;28.50
68127;BMP180;54931;52.098;21.006;2022-07-04T13:09:08;100351.80;;;28.40
68127;BMP180;54931;52.098;21.006;2022-07-04T13:11:37;100356.60;;;28.30
68127;BMP180;54931;52.098;21.006;2022-07-04T13:14:22;100360.40;;;28.30
68127;BMP180;54931;52.098;21.006;2022-07-04T13:16:50;100361.20;;;28.20
68127;BMP180;54931;52.098;21.006;2022-07-04T13:19:17;100357.40;;;28.16
68127;BMP180;54931;52.098;21.006;2022-07-04T13:21:45;100349.00;;;28.10
68127;BMP180;54931;52.098;21.006;2022-07-04T13:24:14;100345.60;;;28.00
68127;BMP180;54931;52.098;21.006;2022-07-04T13:26:42;100337.00;;;28.10
68127;BMP180;54931;52.098;21.006;2022-07-04T13:29:10;100336.40;;;28.24
68127;BMP180;54931;52.098;21.006;2022-07-04T13:31:37;100330.40;;;28.40
68127;BMP180;54931;52.098;21.006;2022-07-04T13:34:04;100338.60;;;28.44
68127;BMP180;54931;52.098;21.006;2022-07-04T13:36:32;100337.80;;;28.52
68127;BMP180;54931;52.098;21.006;2022-07-04T13:38:59;100331.40;;;28.60
68127;BMP180;54931;52.098;21.006;2022-07-04T13:41:27;100339.00;;;28.82
68127;BMP180;54931;52.098;21.006;2022-07-04T13:43:54;100340.00;;;29.00
68127;BMP180;54931;52.098;21.006;2022-07-04T13:46:23;100334.40;;;29.20
68127;BMP180;54931;52.098;21.006;2022-07-04T13:48:51;100334.40;;;29.10
68127;BMP180;54931;52.098;21.006;2022-07-04T13:51:18;100339.60;;;29.10
68127;BMP180;54931;52.098;21.006;2022-07-04T13:53:45;100343.60;;;29.14
68127;BMP180;54931;52.098;21.006;2022-07-04T13:56:13;100349.80;;;28.90
68127;BMP180;54931;52.098;21.006;2022-07-04T13:58:47;100345.40;;;28.70
68127;BMP180;54931;52.098;21.006;2022-07-04T14:01:15;100347.00;;;28.60
68127;BMP180;54931;52.098;21.006;2022-07-04T14:03:45;100342.80;;;28.70
68127;BMP180;54931;52.098;21.006;2022-07-04T14:06:13;100346.20;;;28.92
68127;BMP180;54931;52.098;21.006;2022-07-04T14:08:41;100350.00;;;29.04
68127;BMP180;54931;52.098;21.006;2022-07-04T14:11:08;100349.80;;;29.00
68127;BMP180;54931;52.098;21.006;2022-07-04T14:13:39;100348.60;;;29.10
68127;BMP180;54931;52.098;21.006;2022-07-04T14:16:07;100343.60;;;29.08
68127;BMP180;54931;52.098;21.006;2022-07-04T14:18:34;100348.20;;;28.90
68127;BMP180;54931;52.098;21.006;2022-07-04T14:21:02;100346.80;;;29.00
68127;BMP180;54931;52.098;21.006;2022-07-04T14:23:29;100336.80;;;29.16
68127;BMP180;54931;52.098;21.006;2022-07-04T14:26:12;100338.40;;;29.20
68127;BMP180;54931;52.098;21.006;2022-07-04T14:28:41;100340.60;;;29.08
68127;BMP180;54931;52.098;21.006;2022-07-04T14:31:09;100334.60;;;29.20